Terminal Aerodrome Forecast
Issued by NWS

Home | Current Version | Previous Version | Graphics & Text | Print | Product List | Glossary On
Versions: 1 2 3 4 5 6 7 8 9 10 11 12 13 14 15 16 17 18 19
000
FTUS43 KICT 280520
TAFRSL
TAF
KRSL 280520Z 2806/2906 07006KT P6SM SCT100 SCT250
     FM281100 09006KT P6SM SCT250
     FM282100 12008KT P6SM VCTS SCT050CB SCT250
      TEMPO 2822/2902 5SM TSRA BKN035CB
     FM290300 07012KT P6SM SCT080 BKN120=

USA.gov is the U.S. government's official web portal to all federal, state and local government web resources and services.